createdAt,value
2023-04-08T00:01:41.836Z,3.71
2023-04-08T00:04:09.877Z,3.66
2023-04-08T00:06:37.291Z,3.57
2023-04-08T00:09:05.589Z,3.39
2023-04-08T00:11:32.274Z,3.45
2023-04-08T00:13:59.890Z,3.51
2023-04-08T00:16:26.649Z,3.56
2023-04-08T00:18:53.308Z,3.42
2023-04-08T00:21:21.255Z,3.59
2023-04-08T00:23:47.988Z,3.48
2023-04-08T00:26:14.707Z,3.28
2023-04-08T00:28:42.713Z,3.27
2023-04-08T00:31:09.759Z,3.18
2023-04-08T00:33:36.723Z,3.47
2023-04-08T00:36:03.501Z,3.41
2023-04-08T00:38:31.005Z,3.40
2023-04-08T00:40:58.407Z,3.37
2023-04-08T00:43:25.304Z,3.66
2023-04-08T00:45:52.097Z,3.74
2023-04-08T00:48:18.861Z,3.77
2023-04-08T00:50:47.107Z,3.65
2023-04-08T00:53:18.454Z,3.40
2023-04-08T00:55:45.422Z,3.50
2023-04-08T00:58:12.675Z,3.52
2023-04-08T01:00:43.132Z,3.52
2023-04-08T01:03:20.892Z,3.46
2023-04-08T01:06:00.047Z,3.36
2023-04-08T01:08:27.805Z,3.45
2023-04-08T01:10:54.438Z,3.41
2023-04-08T01:13:21.097Z,3.50
2023-04-08T01:15:47.850Z,3.60
2023-04-08T01:18:14.564Z,3.70
2023-04-08T01:20:42.186Z,3.79
2023-04-08T01:23:08.684Z,3.62
2023-04-08T01:25:37.199Z,3.40
2023-04-08T01:28:17.060Z,3.40
2023-04-08T01:30:43.696Z,3.48
2023-04-08T01:33:14.503Z,3.43
2023-04-08T01:35:41.163Z,3.58
2023-04-08T01:38:09.184Z,3.49
2023-04-08T01:40:35.919Z,3.68
2023-04-08T01:43:03.263Z,3.60
2023-04-08T01:45:30.374Z,3.57
2023-04-08T01:47:57.216Z,3.50
2023-04-08T01:50:24.053Z,3.47
2023-04-08T01:52:53.034Z,3.47
2023-04-08T01:55:19.944Z,3.34
2023-04-08T01:57:51.512Z,3.25
2023-04-08T02:00:24.093Z,3.21
2023-04-08T02:02:50.849Z,3.37
2023-04-08T02:05:17.831Z,3.44
2023-04-08T02:07:46.763Z,3.32
2023-04-08T02:10:13.415Z,3.28
2023-04-08T02:12:40.013Z,3.33
2023-04-08T02:15:07.081Z,3.31
2023-04-08T02:17:42.783Z,3.35
2023-04-08T02:20:40.027Z,3.38
2023-04-08T02:23:14.733Z,3.42
2023-04-08T02:25:43.328Z,3.40
2023-04-08T02:28:11.270Z,3.27
2023-04-08T02:30:44.297Z,3.40
2023-04-08T02:33:11.877Z,3.17
2023-04-08T02:35:38.601Z,2.83
2023-04-08T02:38:05.409Z,3.02
2023-04-08T02:40:33.164Z,3.12
2023-04-08T02:43:00.113Z,3.02
2023-04-08T02:45:28.470Z,2.93
2023-04-08T02:47:55.481Z,3.15
2023-04-08T02:50:22.284Z,2.88
2023-04-08T02:52:48.859Z,2.71
2023-04-08T02:55:15.759Z,2.89
2023-04-08T02:57:42.627Z,2.79
2023-04-08T03:00:09.956Z,2.98
2023-04-08T03:02:36.717Z,3.09
2023-04-08T03:05:05.445Z,3.20
2023-04-08T03:07:32.628Z,3.28
2023-04-08T03:09:59.328Z,3.19
2023-04-08T03:12:27.677Z,3.08
2023-04-08T03:14:54.533Z,3.03
2023-04-08T03:17:21.415Z,2.99
2023-04-08T03:19:48.076Z,2.95
2023-04-08T03:22:14.694Z,3.02
2023-04-08T03:24:41.241Z,3.14
2023-04-08T03:27:08.531Z,3.09
2023-04-08T03:29:35.372Z,3.00
2023-04-08T03:32:02.624Z,3.05
2023-04-08T03:34:29.295Z,3.27
2023-04-08T03:36:56.160Z,3.29
2023-04-08T03:39:22.788Z,3.15
2023-04-08T03:41:49.467Z,3.23
2023-04-08T03:44:16.212Z,3.14
2023-04-08T03:46:42.836Z,3.31
2023-04-08T03:49:09.526Z,2.85
2023-04-08T03:51:36.176Z,2.94
2023-04-08T03:54:02.964Z,3.02
2023-04-08T03:56:29.743Z,3.15
2023-04-08T03:58:56.417Z,3.07
2023-04-08T04:01:23.084Z,2.98
2023-04-08T04:03:49.850Z,2.85
2023-04-08T04:06:16.597Z,2.89
2023-04-08T04:08:43.219Z,2.99
2023-04-08T04:11:09.904Z,3.12
2023-04-08T04:13:36.596Z,3.20
2023-04-08T04:16:03.408Z,3.24
2023-04-08T04:18:30.214Z,3.06
2023-04-08T04:20:56.841Z,3.01
2023-04-08T04:23:25.748Z,2.85
2023-04-08T04:25:52.536Z,3.29
2023-04-08T04:28:19.207Z,3.36
2023-04-08T04:30:46.268Z,3.25
2023-04-08T04:33:12.998Z,3.26
2023-04-08T04:35:39.974Z,3.13
2023-04-08T04:38:11.065Z,3.27
2023-04-08T04:40:37.816Z,3.43
2023-04-08T04:43:04.506Z,3.61
2023-04-08T04:45:31.201Z,3.48
2023-04-08T04:47:57.850Z,3.27
2023-04-08T04:50:24.573Z,3.35
2023-04-08T04:52:51.175Z,3.43
2023-04-08T04:55:17.917Z,3.46
2023-04-08T04:57:44.611Z,3.64
2023-04-08T05:00:11.703Z,3.58
2023-04-08T05:02:38.412Z,3.38
2023-04-08T05:05:05.583Z,3.24
2023-04-08T05:07:32.340Z,3.33
2023-04-08T05:09:59.018Z,3.50
2023-04-08T05:12:25.783Z,3.33
2023-04-08T05:14:52.392Z,3.60
2023-04-08T05:17:19.085Z,3.61
2023-04-08T05:19:45.800Z,3.84
2023-04-08T05:22:12.354Z,3.75
2023-04-08T05:24:38.959Z,3.80
2023-04-08T05:27:05.773Z,3.82
2023-04-08T05:29:32.398Z,3.85
2023-04-08T05:31:59.304Z,3.92
2023-04-08T05:34:25.999Z,4.09
2023-04-08T05:36:52.597Z,4.23
2023-04-08T05:39:19.562Z,4.44
2023-04-08T05:41:46.600Z,4.73
2023-04-08T05:44:14.095Z,4.60
2023-04-08T05:46:40.737Z,4.93
2023-04-08T05:49:07.464Z,5.25
2023-04-08T05:51:34.106Z,5.10
2023-04-08T05:54:00.960Z,5.19
2023-04-08T05:56:27.702Z,5.32
2023-04-08T05:58:54.321Z,5.58
2023-04-08T06:01:21.460Z,5.44
2023-04-08T06:03:48.256Z,5.39
2023-04-08T06:06:15.112Z,5.70
2023-04-08T06:08:41.690Z,5.77
2023-04-08T06:11:08.398Z,5.92
2023-04-08T06:13:35.229Z,6.12
2023-04-08T06:16:15.075Z,6.01
2023-04-08T06:18:41.714Z,6.25
2023-04-08T06:21:08.444Z,6.39
2023-04-08T06:23:35.137Z,6.35
2023-04-08T06:26:01.782Z,6.44
2023-04-08T06:28:29.781Z,6.56
2023-04-08T06:30:56.924Z,6.90
2023-04-08T06:33:23.586Z,7.03
2023-04-08T06:35:50.623Z,7.06
2023-04-08T06:38:17.298Z,6.93
2023-04-08T06:40:43.975Z,6.70
2023-04-08T06:43:10.712Z,6.80
2023-04-08T06:45:37.415Z,7.06
2023-04-08T06:48:04.284Z,7.03
2023-04-08T06:50:31.067Z,7.04
2023-04-08T06:52:57.618Z,7.13
2023-04-08T06:55:24.259Z,7.60
2023-04-08T06:57:51.010Z,7.73
2023-04-08T07:00:17.967Z,7.63
2023-04-08T07:02:45.053Z,7.76
2023-04-08T07:05:11.882Z,7.77
2023-04-08T07:07:38.631Z,8.15
2023-04-08T07:10:07.279Z,8.21
2023-04-08T07:12:35.574Z,8.24
2023-04-08T07:15:02.273Z,8.19
2023-04-08T07:17:29.087Z,8.41
2023-04-08T07:19:55.952Z,8.07
2023-04-08T07:22:22.657Z,7.84
2023-04-08T07:24:49.927Z,8.03
2023-04-08T07:27:17.354Z,8.40
2023-04-08T07:29:44.072Z,8.52
2023-04-08T07:32:10.793Z,8.70
2023-04-08T07:34:37.607Z,8.94
2023-04-08T07:37:04.291Z,9.04
2023-04-08T07:39:31.149Z,8.76
2023-04-08T07:41:57.826Z,8.63
2023-04-08T07:44:24.528Z,8.92
2023-04-08T07:46:51.953Z,9.15
2023-04-08T07:49:18.786Z,8.90
2023-04-08T07:51:45.388Z,9.12
2023-04-08T07:54:17.377Z,9.28
2023-04-08T07:56:44.910Z,9.42
2023-04-08T07:59:12.020Z,9.10
2023-04-08T08:01:38.765Z,8.81
2023-04-08T08:04:05.653Z,8.96
2023-04-08T08:06:32.722Z,8.93
2023-04-08T08:08:59.981Z,9.16
2023-04-08T08:11:30.049Z,9.28
2023-04-08T08:13:57.054Z,9.51
2023-04-08T08:16:27.319Z,9.40
2023-04-08T08:18:54.054Z,9.34
2023-04-08T08:21:20.748Z,9.57
2023-04-08T08:23:47.679Z,9.55
2023-04-08T08:26:14.341Z,9.62
2023-04-08T08:28:40.942Z,9.86
2023-04-08T08:31:07.847Z,10.12
2023-04-08T08:33:34.554Z,10.40
2023-04-08T08:36:01.265Z,10.46
2023-04-08T08:38:28.038Z,10.41
2023-04-08T08:40:56.339Z,10.28
2023-04-08T08:43:24.294Z,10.33
2023-04-08T08:45:51.347Z,10.08
2023-04-08T08:48:18.062Z,10.16
2023-04-08T08:50:44.724Z,10.11
2023-04-08T08:53:11.560Z,10.59
2023-04-08T08:56:05.537Z,10.79
2023-04-08T08:58:29.594Z,10.65
2023-04-08T09:00:56.361Z,10.94
2023-04-08T09:03:29.706Z,10.87
2023-04-08T09:06:01.098Z,11.00
2023-04-08T09:08:34.552Z,11.07
2023-04-08T09:11:14.352Z,11.11
2023-04-08T09:13:41.226Z,10.74
2023-04-08T09:16:11.918Z,10.88
2023-04-08T09:18:38.743Z,11.16
2023-04-08T09:21:06.415Z,10.91
2023-04-08T09:23:42.649Z,11.21
2023-04-08T09:26:19.809Z,11.35
2023-04-08T09:29:24.082Z,11.77
2023-04-08T09:31:58.550Z,12.22
2023-04-08T09:34:25.867Z,12.27
2023-04-08T09:36:52.698Z,12.22
2023-04-08T09:39:19.498Z,12.23
2023-04-08T09:41:48.996Z,12.41
2023-04-08T09:44:16.936Z,12.68
2023-04-08T09:46:49.597Z,12.67
2023-04-08T09:49:25.564Z,12.25
2023-04-08T09:52:19.513Z,12.62
2023-04-08T09:55:06.781Z,13.27
2023-04-08T09:57:54.725Z,13.37
2023-04-08T10:00:28.911Z,12.42
2023-04-08T10:02:59.436Z,12.67
2023-04-08T10:05:26.313Z,11.90
2023-04-08T10:07:52.982Z,12.29
2023-04-08T10:10:19.975Z,12.57
2023-04-08T10:12:46.585Z,11.76
2023-04-08T10:15:26.088Z,11.82
2023-04-08T10:17:53.656Z,12.17
2023-04-08T10:20:44.045Z,12.17
2023-04-08T10:23:14.913Z,11.96
2023-04-08T10:25:41.884Z,11.74
2023-04-08T10:28:11.348Z,11.47
2023-04-08T10:30:51.031Z,11.79
2023-04-08T10:33:18.387Z,12.50
2023-04-08T10:35:59.536Z,13.21
2023-04-08T10:38:26.207Z,13.16
2023-04-08T10:40:53.759Z,12.86
2023-04-08T10:43:20.839Z,13.02
2023-04-08T10:45:51.403Z,12.75
2023-04-08T10:48:23.086Z,13.31
2023-04-08T10:50:57.016Z,13.88
2023-04-08T10:53:36.761Z,14.29
2023-04-08T10:56:24.548Z,13.84
2023-04-08T10:58:52.372Z,13.33
2023-04-08T11:01:19.137Z,13.85
2023-04-08T11:03:46.076Z,13.57
2023-04-08T11:06:13.007Z,14.23
2023-04-08T11:08:39.619Z,14.78
2023-04-08T11:11:09.281Z,14.68
2023-04-08T11:13:36.916Z,14.55
2023-04-08T11:16:16.505Z,14.40
2023-04-08T11:18:45.950Z,14.25
2023-04-08T11:21:12.740Z,13.93
2023-04-08T11:23:39.445Z,14.26
2023-04-08T11:26:06.541Z,13.37
2023-04-08T11:28:33.165Z,13.74
2023-04-08T11:30:59.928Z,13.79
2023-04-08T11:33:29.290Z,13.86
2023-04-08T11:35:56.631Z,14.26
2023-04-08T11:38:24.297Z,13.69
2023-04-08T11:40:55.410Z,14.45
2023-04-08T11:43:22.224Z,15.25
2023-04-08T11:45:48.938Z,15.71
2023-04-08T11:48:16.474Z,15.70
2023-04-08T11:50:43.695Z,14.82
2023-04-08T11:53:25.283Z,14.39
2023-04-08T11:55:51.984Z,14.18
2023-04-08T11:58:18.651Z,14.44
2023-04-08T12:00:45.819Z,14.62
2023-04-08T12:03:13.556Z,14.80
2023-04-08T12:05:40.742Z,14.92
2023-04-08T12:08:07.479Z,13.98
2023-04-08T12:10:34.164Z,14.94
2023-04-08T12:13:00.802Z,15.19
2023-04-08T12:15:27.547Z,15.23
2023-04-08T12:17:54.343Z,14.56
2023-04-08T12:20:21.140Z,13.71
2023-04-08T12:22:47.798Z,13.54
2023-04-08T12:25:14.387Z,13.71
2023-04-08T12:27:41.092Z,13.96
2023-04-08T12:30:08.614Z,14.27
2023-04-08T12:32:35.359Z,14.81
2023-04-08T12:35:02.084Z,14.48
2023-04-08T12:37:28.873Z,14.80
2023-04-08T12:39:55.622Z,15.49
2023-04-08T12:42:22.369Z,15.65
2023-04-08T12:44:49.009Z,15.38
2023-04-08T12:47:15.930Z,14.97
2023-04-08T12:49:49.396Z,15.20
2023-04-08T12:52:17.467Z,15.57
2023-04-08T12:54:44.474Z,15.18
2023-04-08T12:57:11.294Z,15.40
2023-04-08T12:59:39.858Z,15.27
2023-04-08T13:02:07.007Z,14.85
2023-04-08T13:04:33.639Z,13.82
2023-04-08T13:07:01.010Z,13.19
2023-04-08T13:09:27.737Z,13.21
2023-04-08T13:11:54.325Z,12.62
2023-04-08T13:14:21.345Z,12.40
2023-04-08T13:16:48.007Z,12.48
2023-04-08T13:19:14.910Z,12.23
2023-04-08T13:21:41.626Z,11.91
2023-04-08T13:24:10.763Z,11.98
2023-04-08T13:26:44.170Z,11.76
2023-04-08T13:29:17.342Z,11.83
2023-04-08T13:32:13.827Z,11.91
2023-04-08T13:35:21.009Z,11.38
2023-04-08T13:37:51.799Z,11.23
2023-04-08T13:40:18.660Z,11.14
2023-04-08T13:42:45.317Z,11.03
2023-04-08T13:45:12.049Z,11.13
2023-04-08T13:47:38.923Z,11.07
2023-04-08T13:50:08.993Z,10.64
2023-04-08T13:52:36.010Z,11.00
2023-04-08T13:55:02.787Z,11.13
2023-04-08T13:57:29.525Z,11.10
2023-04-08T13:59:56.223Z,10.97
2023-04-08T14:02:23.728Z,10.98
2023-04-08T14:04:50.609Z,10.51
2023-04-08T14:07:17.413Z,10.47
2023-04-08T14:09:44.052Z,10.43
2023-04-08T14:12:10.918Z,10.53
2023-04-08T14:14:37.495Z,10.59
2023-04-08T14:17:04.354Z,10.73
2023-04-08T14:19:31.242Z,10.68
2023-04-08T14:21:57.861Z,10.73
2023-04-08T14:24:24.539Z,10.90
2023-04-08T14:26:51.221Z,10.94
2023-04-08T14:29:17.877Z,11.02
2023-04-08T14:31:44.581Z,10.80
2023-04-08T14:34:11.237Z,10.73
2023-04-08T14:36:37.857Z,10.64
2023-04-08T14:39:04.563Z,10.70
2023-04-08T14:41:31.497Z,10.84
2023-04-08T14:43:58.098Z,10.75
2023-04-08T14:46:28.584Z,11.02
2023-04-08T14:48:55.863Z,10.88
2023-04-08T14:51:22.559Z,10.80
2023-04-08T14:53:49.214Z,10.54
2023-04-08T14:56:16.143Z,10.51
2023-04-08T14:58:42.747Z,10.60
2023-04-08T15:01:09.388Z,10.71
2023-04-08T15:03:36.195Z,10.50
2023-04-08T15:06:03.506Z,10.69
2023-04-08T15:08:30.140Z,10.89
2023-04-08T15:10:57.148Z,10.91
2023-04-08T15:13:23.824Z,10.99
2023-04-08T15:15:50.580Z,10.94
2023-04-08T15:18:17.348Z,10.71
2023-04-08T15:20:43.903Z,10.67
2023-04-08T15:23:10.606Z,10.90
2023-04-08T15:25:37.313Z,10.75
2023-04-08T15:28:04.565Z,10.78
2023-04-08T15:30:35.365Z,10.59
2023-04-08T15:33:03.725Z,10.50
2023-04-08T15:35:30.858Z,10.16
2023-04-08T15:37:57.634Z,10.15
2023-04-08T15:40:24.392Z,9.89
2023-04-08T15:42:51.075Z,9.72
2023-04-08T15:45:17.726Z,9.62
2023-04-08T15:47:44.474Z,9.52
2023-04-08T15:50:11.605Z,9.17
2023-04-08T15:52:38.214Z,9.38
2023-04-08T15:55:05.337Z,9.43
2023-04-08T15:57:32.564Z,9.62
2023-04-08T15:59:59.212Z,9.79
2023-04-08T16:02:26.117Z,9.97
2023-04-08T16:04:52.831Z,9.80
2023-04-08T16:07:19.552Z,9.92
2023-04-08T16:09:46.333Z,9.82
2023-04-08T16:12:14.829Z,9.94
2023-04-08T16:14:41.466Z,9.85
2023-04-08T16:17:09.141Z,9.83
2023-04-08T16:19:35.796Z,9.96
2023-04-08T16:22:02.484Z,9.81
2023-04-08T16:24:29.150Z,9.70
2023-04-08T16:26:55.766Z,9.56
2023-04-08T16:29:22.999Z,9.49
2023-04-08T16:31:50.377Z,9.43
2023-04-08T16:34:19.596Z,9.55
2023-04-08T16:36:46.331Z,9.37
2023-04-08T16:39:12.948Z,9.14
2023-04-08T16:41:39.788Z,8.77
2023-04-08T16:44:06.702Z,8.99
2023-04-08T16:46:33.502Z,8.65
2023-04-08T16:49:00.231Z,8.64
2023-04-08T16:51:26.890Z,8.60
2023-04-08T16:53:54.834Z,8.63
2023-04-08T16:56:22.980Z,8.75
2023-04-08T16:58:49.564Z,8.60
2023-04-08T17:01:16.340Z,8.93
2023-04-08T17:03:43.115Z,8.65
2023-04-08T17:06:10.740Z,8.26
2023-04-08T17:08:37.600Z,8.41
2023-04-08T17:11:10.048Z,8.54
2023-04-08T17:13:41.306Z,8.52
2023-04-08T17:16:11.991Z,8.44
2023-04-08T17:18:38.570Z,8.52
2023-04-08T17:21:05.322Z,8.64
2023-04-08T17:23:31.958Z,8.11
2023-04-08T17:25:58.659Z,8.02
2023-04-08T17:28:25.576Z,8.31
2023-04-08T17:30:52.376Z,8.28
2023-04-08T17:33:19.081Z,8.18
2023-04-08T17:35:45.903Z,8.14
2023-04-08T17:38:13.063Z,7.81
2023-04-08T17:40:39.751Z,7.57
2023-04-08T17:43:06.532Z,7.78
2023-04-08T17:45:33.156Z,7.68
2023-04-08T17:47:59.907Z,7.84
2023-04-08T17:50:26.658Z,8.12
2023-04-08T17:52:53.271Z,8.09
2023-04-08T17:55:19.949Z,8.07
2023-04-08T17:57:47.246Z,8.01
2023-04-08T18:00:14.072Z,7.92
2023-04-08T18:02:41.814Z,7.99
2023-04-08T18:05:08.960Z,7.98
2023-04-08T18:07:36.078Z,7.85
2023-04-08T18:10:02.800Z,7.93
2023-04-08T18:12:30.532Z,7.68
2023-04-08T18:15:00.206Z,7.71
2023-04-08T18:17:27.693Z,7.60
2023-04-08T18:19:54.400Z,7.17
2023-04-08T18:22:22.595Z,7.34
2023-04-08T18:24:49.378Z,7.16
2023-04-08T18:27:17.079Z,7.33
2023-04-08T18:29:43.808Z,6.86
2023-04-08T18:32:10.622Z,6.90
2023-04-08T18:34:38.943Z,6.82
2023-04-08T18:37:05.754Z,7.00
2023-04-08T18:39:32.399Z,6.76
2023-04-08T18:41:59.050Z,7.11
2023-04-08T18:44:25.827Z,7.07
2023-04-08T18:46:52.498Z,7.00
2023-04-08T18:49:19.158Z,7.09
2023-04-08T18:51:59.053Z,7.05
2023-04-08T18:54:28.329Z,7.27
2023-04-08T18:56:54.972Z,7.20
2023-04-08T18:59:21.722Z,6.85
2023-04-08T19:01:48.421Z,7.12
2023-04-08T19:04:15.248Z,7.44
2023-04-08T19:06:41.965Z,7.68
2023-04-08T19:09:08.605Z,7.71
2023-04-08T19:11:35.361Z,7.66
2023-04-08T19:14:02.062Z,7.81
2023-04-08T19:16:28.804Z,7.75
2023-04-08T19:18:56.096Z,7.68
2023-04-08T19:21:23.263Z,7.77
2023-04-08T19:23:50.225Z,7.66
2023-04-08T19:26:17.364Z,7.46
2023-04-08T19:28:44.032Z,7.42
2023-04-08T19:31:17.539Z,7.30
2023-04-08T19:33:44.559Z,7.43
2023-04-08T19:36:11.653Z,7.43
2023-04-08T19:38:38.691Z,7.40
2023-04-08T19:41:05.446Z,7.66
2023-04-08T19:43:32.175Z,7.63
2023-04-08T19:45:58.802Z,7.66
2023-04-08T19:48:25.999Z,7.76
2023-04-08T19:50:52.632Z,7.65
2023-04-08T19:53:20.573Z,7.69
2023-04-08T19:55:47.214Z,7.78
2023-04-08T19:58:13.846Z,7.56
2023-04-08T20:00:40.783Z,7.58
2023-04-08T20:03:08.171Z,7.50
2023-04-08T20:05:34.983Z,7.36
2023-04-08T20:08:01.612Z,7.43
2023-04-08T20:10:28.324Z,7.60
2023-04-08T20:12:54.984Z,7.85
2023-04-08T20:15:25.256Z,7.66
2023-04-08T20:17:53.142Z,7.51
2023-04-08T20:20:20.392Z,7.60
2023-04-08T20:22:47.024Z,7.55
2023-04-08T20:25:13.740Z,7.68
2023-04-08T20:27:41.284Z,7.58
2023-04-08T20:30:08.481Z,7.59
2023-04-08T20:32:35.080Z,7.52
2023-04-08T20:35:01.865Z,7.59
2023-04-08T20:37:28.802Z,7.51
2023-04-08T20:39:55.528Z,7.36
2023-04-08T20:42:22.740Z,7.42
2023-04-08T20:44:49.383Z,7.50
2023-04-08T20:47:16.888Z,7.59
2023-04-08T20:49:43.635Z,7.46
2023-04-08T20:52:10.417Z,7.39
2023-04-08T20:54:36.990Z,7.39
2023-04-08T20:57:03.690Z,7.41
2023-04-08T20:59:30.348Z,7.53
2023-04-08T21:01:57.002Z,7.45
2023-04-08T21:04:24.526Z,7.22
2023-04-08T21:06:51.515Z,7.45
2023-04-08T21:09:18.207Z,7.39
2023-04-08T21:11:44.930Z,7.32
2023-04-08T21:14:11.605Z,7.35
2023-04-08T21:16:38.220Z,7.35
2023-04-08T21:19:04.906Z,7.31
2023-04-08T21:21:31.723Z,7.26
2023-04-08T21:24:00.550Z,7.39
2023-04-08T21:26:27.746Z,7.41
2023-04-08T21:28:54.410Z,7.31
2023-04-08T21:31:21.156Z,7.38
2023-04-08T21:33:47.905Z,7.45
2023-04-08T21:36:14.642Z,7.51
2023-04-08T21:38:41.800Z,7.54
2023-04-08T21:41:08.523Z,7.51
2023-04-08T21:43:35.108Z,7.36
2023-04-08T21:46:01.854Z,7.58
2023-04-08T21:48:28.632Z,7.63
2023-04-08T21:50:55.295Z,7.59
2023-04-08T21:53:23.782Z,7.50
2023-04-08T21:55:50.547Z,7.35
2023-04-08T21:58:17.282Z,7.30
2023-04-08T22:00:44.700Z,7.36
2023-04-08T22:03:11.544Z,7.56
2023-04-08T22:05:38.368Z,7.62
2023-04-08T22:08:05.431Z,7.25
2023-04-08T22:10:32.153Z,7.38
2023-04-08T22:12:58.792Z,7.50
2023-04-08T22:15:25.408Z,7.54
2023-04-08T22:17:53.269Z,7.37
2023-04-08T22:20:20.034Z,7.26
2023-04-08T22:22:46.666Z,7.10
2023-04-08T22:25:13.375Z,7.04
2023-04-08T22:27:40.088Z,7.10
2023-04-08T22:30:07.449Z,7.24
2023-04-08T22:32:34.125Z,7.06
2023-04-08T22:35:00.853Z,6.98
2023-04-08T22:37:27.627Z,7.11
2023-04-08T22:39:54.264Z,7.22
2023-04-08T22:42:20.982Z,7.18
2023-04-08T22:44:47.586Z,7.06
2023-04-08T22:47:14.323Z,7.10
2023-04-08T22:49:42.679Z,7.13
2023-04-08T22:52:09.501Z,7.09
2023-04-08T22:54:36.441Z,6.94
2023-04-08T22:57:03.295Z,7.10
2023-04-08T22:59:29.979Z,7.20
2023-04-08T23:01:56.694Z,6.98
2023-04-08T23:04:23.345Z,6.90
2023-04-08T23:06:50.041Z,6.85
2023-04-08T23:09:16.746Z,6.85
2023-04-08T23:11:43.395Z,6.82
2023-04-08T23:14:11.239Z,6.97
2023-04-08T23:16:37.813Z,6.97
2023-04-08T23:19:04.522Z,7.01
2023-04-08T23:21:31.228Z,6.88
2023-04-08T23:23:57.913Z,6.75
2023-04-08T23:26:25.431Z,6.89
2023-04-08T23:28:52.453Z,7.00
2023-04-08T23:31:19.662Z,6.98
2023-04-08T23:33:46.449Z,6.92
2023-04-08T23:36:13.231Z,6.72
2023-04-08T23:38:39.924Z,6.69
2023-04-08T23:41:06.801Z,6.84
2023-04-08T23:43:33.679Z,6.79
2023-04-08T23:46:00.299Z,6.84
2023-04-08T23:48:26.987Z,6.88
2023-04-08T23:50:54.390Z,6.79
2023-04-08T23:53:21.189Z,6.89
2023-04-08T23:55:48.009Z,7.02
2023-04-08T23:58:14.790Z,6.79
